Time;durP1;ratioP1;P1;durP2;ratioP2;P2;SDS_P1;SDS_P2;PMS_P1;PMS_P2;Temp;Humidity;BMP_temperature;BMP_pressure;BME280_temperature;BME280_humidity;BME280_pressure;Samples;Min_cycle;Max_cycle;Signal;HPM_P1;HPM_P2
2023/04/11 00:00:56;;;;;;;5.07;1.50;;;12.10;86.10;;;11.54;69.26;99898.69;5022427;28;20042;-82
2023/04/11 00:03:23;;;;;;;7.07;1.55;;;12.10;86.20;;;11.57;69.23;99894.75;5012241;28;20050;-80
2023/04/11 00:05:51;;;;;;;5.25;1.52;;;12.10;86.30;;;11.53;69.42;99885.59;5023362;28;20693;-81
2023/04/11 00:08:18;;;;;;;9.13;1.92;;;12.10;86.20;;;11.55;69.02;99892.31;5017386;28;20042;-80
2023/04/11 00:10:46;;;;;;;4.93;1.45;;;12.10;86.10;;;11.58;69.16;99893.72;5014784;28;20042;-82
2023/04/11 00:13:14;;;;;;;8.10;1.40;;;12.20;86.10;;;11.58;69.06;99886.50;5008031;28;20050;-83
2023/04/11 00:15:41;;;;;;;7.90;1.75;;;12.20;86.00;;;11.60;68.72;99896.94;5005694;28;20156;-80
2023/04/11 00:18:08;;;;;;;6.80;1.50;;;12.20;86.00;;;11.58;69.26;99891.84;5008497;28;20084;-82
2023/04/11 00:20:35;;;;;;;4.22;1.67;;;12.20;86.00;;;11.54;69.15;99889.88;5019363;28;20069;-81
2023/04/11 00:23:02;;;;;;;6.20;1.75;;;12.00;85.90;;;11.55;69.19;99894.16;5013736;28;20076;-80
2023/04/11 00:25:31;;;;;;;8.30;1.88;;;12.20;86.10;;;11.55;68.88;99892.31;5023793;28;20042;-80
2023/04/11 00:28:00;;;;;;;8.90;1.80;;;12.20;85.80;;;11.54;69.07;99892.53;5024694;28;20091;-80
2023/04/11 00:30:27;;;;;;;6.97;1.90;;;12.10;86.20;;;11.53;69.08;99888.25;5018596;28;20069;-79
2023/04/11 00:32:54;;;;;;;8.80;1.65;;;12.10;86.20;;;11.55;68.70;99892.31;5007339;28;20072;-81
2023/04/11 00:35:22;;;;;;;6.90;1.60;;;12.20;85.70;;;11.57;68.79;99892.91;5015679;28;20049;-80
2023/04/11 00:37:54;;;;;;;7.28;1.60;;;12.20;85.90;;;11.60;68.75;99888.94;5027582;28;20064;-82
2023/04/11 00:40:22;;;;;;;5.75;1.90;;;12.20;85.90;;;11.52;68.96;99895.44;5011048;28;20056;-80
2023/04/11 00:42:50;;;;;;;6.47;1.67;;;12.10;86.20;;;11.51;68.76;99893.81;5018599;28;20050;-80
2023/04/11 00:45:19;;;;;;;6.82;1.92;;;12.10;85.90;;;11.44;69.39;99885.09;5028552;28;20041;-80
2023/04/11 00:47:46;;;;;;;9.25;1.90;;;12.00;86.50;;;11.43;69.85;99893.34;4994299;28;20048;-81
2023/04/11 00:50:14;;;;;;;9.52;2.17;;;12.00;86.80;;;11.40;69.59;99889.28;5019815;28;20716;-83
2023/04/11 00:52:45;;;;;;;8.57;1.90;;;12.00;86.30;;;11.43;69.46;99878.16;5018882;28;20131;-82
2023/04/11 00:55:13;;;;;;;9.18;2.00;;;12.00;86.40;;;11.45;68.97;99878.72;5011866;28;20115;-81
2023/04/11 00:57:42;;;;;;;8.82;1.85;;;12.00;86.00;;;11.45;69.52;99872.56;5014833;28;20129;-81
2023/04/11 01:00:12;;;;;;;8.30;2.33;;;12.00;86.40;;;11.48;69.53;99880.13;5020345;28;20088;-81
2023/04/11 01:02:43;;;;;;;9.02;2.00;;;12.00;86.70;;;11.50;69.63;99883.38;5020507;28;20397;-80
2023/04/11 01:05:13;;;;;;;9.07;2.17;;;12.10;86.70;;;11.51;69.28;99884.97;5042428;28;20089;-79
2023/04/11 01:07:46;;;;;;;9.85;2.55;;;12.10;86.30;;;11.47;69.47;99887.31;4996621;28;20037;-80
2023/04/11 01:10:15;;;;;;;7.57;1.60;;;12.00;86.30;;;11.48;69.26;99888.94;5018218;28;20044;-81
2023/04/11 01:12:45;;;;;;;9.25;2.15;;;12.10;86.60;;;11.50;69.34;99888.69;5039168;28;20694;-81
2023/04/11 01:15:13;;;;;;;8.60;2.20;;;12.10;86.30;;;11.50;69.12;99894.03;5015573;28;20129;-80
2023/04/11 01:17:41;;;;;;;12.30;2.20;;;12.10;86.30;;;11.44;69.48;99878.97;4998882;28;20514;-81
2023/04/11 01:20:11;;;;;;;9.52;2.35;;;12.00;86.50;;;11.44;69.16;99884.28;5038840;28;20049;-81
2023/04/11 01:22:41;;;;;;;9.48;2.13;;;12.00;86.30;;;11.44;69.43;99885.09;5013023;28;20155;-82
2023/04/11 01:25:10;;;;;;;9.38;2.10;;;12.00;86.50;;;11.43;69.39;99878.16;5033149;28;20497;-78
2023/04/11 01:27:38;;;;;;;11.10;2.78;;;12.00;86.50;;;11.45;69.05;99877.91;5042991;28;20069;-82
2023/04/11 01:30:07;;;;;;;7.55;2.15;;;12.00;86.10;;;11.47;68.99;99873.16;5016579;28;20065;-80
2023/04/11 01:32:35;;;;;;;12.35;2.70;;;12.00;86.20;;;11.46;68.75;99876.84;5035372;28;20045;-82
2023/04/11 01:35:05;;;;;;;12.15;2.85;;;12.00;86.00;;;11.45;69.06;99880.56;5007974;28;20136;-82
2023/04/11 01:37:33;;;;;;;14.00;2.67;;;12.00;86.20;;;11.44;68.73;99870.94;5029057;28;20537;-80
2023/04/11 01:40:01;;;;;;;12.73;3.22;;;12.00;85.90;;;11.45;68.87;99881.38;5019890;28;20037;-81
2023/04/11 01:42:32;;;;;;;14.80;3.17;;;12.00;86.00;;;11.42;68.45;99883.69;5020660;28;20045;-80
2023/04/11 01:45:00;;;;;;;14.05;2.92;;;12.00;85.70;;;11.37;68.83;99872.91;5019106;28;20577;-81
2023/04/11 01:47:28;;;;;;;17.67;4.15;;;11.90;85.90;;;11.39;68.82;99876.97;5027605;28;20120;-80
2023/04/11 01:49:55;;;;;;;14.88;3.60;;;12.00;86.00;;;11.38;68.62;99871.88;5009923;28;20045;-81
2023/04/11 01:52:22;;;;;;;15.23;3.17;;;12.00;85.90;;;11.37;68.56;99864.88;5014132;28;20053;-80
2023/04/11 01:54:49;;;;;;;20.85;3.78;;;11.90;85.80;;;11.39;68.62;99868.16;5010368;28;20129;-81
2023/04/11 01:57:16;;;;;;;14.75;3.55;;;11.90;86.00;;;11.39;68.51;99860.97;5021278;28;20077;-80
2023/04/11 01:59:45;;;;;;;20.30;4.15;;;11.90;85.80;;;11.33;68.45;99873.38;5030439;22;20037;-78
2023/04/11 02:02:12;;;;;;;16.83;4.05;;;11.90;85.90;;;11.27;68.82;99879.66;4980684;28;20089;-79
2023/04/11 02:04:39;;;;;;;11.32;3.33;;;11.80;86.10;;;11.26;68.54;99877.19;5000759;28;20100;-78
2023/04/11 02:07:07;;;;;;;18.33;4.50;;;11.80;85.80;;;11.23;68.64;99889.16;5007463;28;20054;-77
2023/04/11 02:09:34;;;;;;;21.70;5.20;;;11.80;85.90;;;11.19;68.24;99882.63;5001258;28;20064;-80
2023/04/11 02:12:01;;;;;;;21.20;4.93;;;11.80;85.50;;;11.16;67.79;99882.28;4987138;28;20122;-80
2023/04/11 02:14:41;;;;;;;24.13;5.68;;;11.70;85.20;;;11.13;68.00;99891.56;4983822;28;20084;-79
2023/04/11 02:17:11;;;;;;;20.77;5.13;;;11.70;85.50;;;11.03;68.26;99893.97;4976581;28;20056;-79
2023/04/11 02:19:40;;;;;;;28.35;5.00;;;11.70;85.70;;;11.05;68.61;99900.72;4976679;28;20570;-80
2023/04/11 02:22:07;;;;;;;21.77;4.70;;;11.70;85.90;;;11.04;68.37;99900.94;4986099;28;20054;-80
2023/04/11 02:24:35;;;;;;;24.58;4.90;;;11.60;85.70;;;11.02;68.39;99895.00;5002161;28;20099;-79
2023/04/11 02:27:03;;;;;;;24.42;4.75;;;11.60;85.70;;;10.98;68.65;99907.16;4995083;28;20078;-79
2023/04/11 02:29:31;;;;;;;16.70;4.30;;;11.60;86.00;;;11.01;68.69;99917.41;4974365;28;20049;-78
2023/04/11 02:31:58;;;;;;;30.75;5.20;;;11.60;85.90;;;11.02;68.42;99900.34;4975550;28;20034;-79
2023/04/11 02:34:26;;;;;;;22.20;5.05;;;11.60;85.60;;;10.98;68.04;99907.16;4982652;28;20506;-78
2023/04/11 02:36:54;;;;;;;20.17;4.47;;;11.60;85.30;;;10.96;68.05;99898.59;4976257;28;20061;-78
2023/04/11 02:39:22;;;;;;;20.35;4.78;;;11.50;85.30;;;10.96;67.67;99907.41;5003174;28;20065;-78
2023/04/11 02:41:50;;;;;;;21.15;5.60;;;11.60;84.90;;;10.91;67.17;99903.78;4988747;28;20041;-78
2023/04/11 02:44:19;;;;;;;28.20;6.28;;;11.50;84.70;;;10.86;67.45;99914.34;4999408;28;20475;-78
2023/04/11 02:46:47;;;;;;;19.42;5.20;;;11.50;84.90;;;10.82;67.42;99909.44;4979608;28;20054;-78
2023/04/11 02:49:14;;;;;;;21.10;5.65;;;11.40;84.70;;;10.82;67.31;99912.09;4979655;28;20049;-78
2023/04/11 02:51:43;;;;;;;23.02;4.90;;;11.40;84.70;;;10.87;67.30;99913.28;4961204;28;20050;-77
2023/04/11 02:54:12;;;;;;;22.30;5.65;;;11.40;84.80;;;10.84;67.08;99911.91;5001457;28;20064;-78
2023/04/11 02:56:40;;;;;;;25.42;5.65;;;11.40;84.60;;;10.87;67.12;99915.97;4976061;28;20141;-80
2023/04/11 02:59:07;;;;;;;20.25;4.78;;;11.40;84.60;;;10.89;66.72;99914.69;4983625;28;20425;-79
2023/04/11 03:01:36;;;;;;;24.85;6.18;;;11.40;84.20;;;10.90;67.08;99919.00;4976302;28;20084;-79
2023/04/11 03:04:03;;;;;;;19.70;5.32;;;11.50;84.60;;;10.93;66.85;99926.56;4985550;28;20137;-79
2023/04/11 03:06:44;;;;;;;17.85;4.78;;;11.50;84.50;;;10.94;66.87;99922.03;4992104;28;20669;-78
2023/04/11 03:09:12;;;;;;;16.95;4.63;;;11.50;84.50;;;10.93;67.01;99925.72;4975504;28;20054;-79
2023/04/11 03:11:40;;;;;;;21.88;4.50;;;11.50;84.60;;;10.91;66.63;99925.13;4969773;28;20137;-78
2023/04/11 03:14:07;;;;;;;26.73;4.88;;;11.50;84.30;;;10.85;67.10;99921.53;4985118;28;20054;-80
2023/04/11 03:16:35;;;;;;;23.55;4.45;;;11.40;84.70;;;10.80;67.18;99927.53;4992055;28;20041;-80
2023/04/11 03:19:02;;;;;;;30.40;5.75;;;11.40;84.70;;;10.82;67.54;99922.78;4995036;28;20039;-79
2023/04/11 03:21:30;;;;;;;21.90;4.15;;;11.40;85.00;;;10.82;67.51;99920.09;4988352;28;20057;-80
2023/04/11 03:24:00;;;;;;;26.45;4.55;;;11.40;84.90;;;10.82;67.25;99928.13;4994698;28;20050;-79
2023/04/11 03:26:27;;;;;;;25.10;4.90;;;11.40;84.70;;;10.83;66.94;99924.44;4998151;28;20128;-80
2023/04/11 03:28:58;;;;;;;27.88;5.65;;;11.40;84.50;;;10.83;66.89;99920.91;4986422;28;20070;-78
2023/04/11 03:31:27;;;;;;;24.48;4.90;;;11.40;84.30;;;10.79;67.11;99925.91;4975792;28;20054;-79
2023/04/11 03:33:55;;;;;;;24.83;5.13;;;11.40;84.70;;;10.80;67.15;99916.88;4986318;28;20062;-79
2023/04/11 03:36:25;;;;;;;29.70;5.63;;;11.40;84.70;;;10.83;67.02;99927.09;4991645;28;20073;-79
2023/04/11 03:38:52;;;;;;;36.35;6.07;;;11.40;84.70;;;10.73;66.71;99924.13;4978388;28;20050;-80
2023/04/11 03:41:21;;;;;;;28.60;6.00;;;11.30;84.40;;;10.69;66.37;99925.66;4986426;28;20061;-79
2023/04/11 03:43:49;;;;;;;26.83;6.15;;;11.30;84.10;;;10.68;66.71;99928.50;4978394;28;20884;-77
2023/04/11 03:46:18;;;;;;;27.90;6.10;;;11.30;84.50;;;10.70;66.67;99924.59;4996939;28;20562;-80
2023/04/11 03:48:47;;;;;;;23.33;6.22;;;11.30;84.30;;;10.74;66.53;99928.44;4978869;28;20122;-79
2023/04/11 03:51:16;;;;;;;30.50;6.50;;;11.30;84.10;;;10.77;66.40;99927.97;4991200;28;20053;-79
2023/04/11 03:54:00;;;;;;;20.05;5.95;;;11.40;84.10;;;10.79;66.38;99931.25;4987925;28;20054;-78
2023/04/11 03:56:34;;;;;;;24.42;5.90;;;11.40;84.10;;;10.82;65.82;99951.31;4990008;28;20061;-78
2023/04/11 03:59:02;;;;;;;26.13;5.85;;;11.40;83.50;;;10.77;65.88;99938.66;4986962;28;20052;-79
2023/04/11 04:01:38;;;;;;;14.70;5.18;;;11.40;83.70;;;10.76;65.94;99952.22;4977298;28;20046;-79
2023/04/11 04:04:06;;;;;;;23.38;5.30;;;11.30;83.70;;;10.75;65.74;99948.75;4973136;28;20525;-79
2023/04/11 04:06:37;;;;;;;24.27;5.80;;;11.40;83.50;;;10.76;65.82;99952.22;4982541;28;20127;-78
2023/04/11 04:09:05;;;;;;;28.02;5.78;;;11.40;83.50;;;10.71;65.60;99949.41;4976238;28;20154;-79
2023/04/11 04:11:46;;;;;;;23.48;5.63;;;11.30;83.40;;;10.64;65.62;99952.19;4992283;28;20050;-78
2023/04/11 04:14:15;;;;;;;20.98;6.18;;;11.30;83.40;;;10.64;65.82;99954.84;4980826;28;20085;-79
2023/04/11 04:16:42;;;;;;;29.45;6.32;;;11.20;83.50;;;10.62;65.87;99962.22;4974850;28;20074;-88
2023/04/11 04:19:11;;;;;;;26.15;5.85;;;11.20;83.40;;;10.66;65.77;99955.41;4983800;28;20054;-87
2023/04/11 04:21:45;;;;;;;;;;;11.30;83.50;;;10.64;65.59;99957.50;4962423;28;20065;-86
2023/04/11 04:24:24;;;;;;;20.92;5.90;;;11.20;83.30;;;10.62;65.80;99967.56;4983825;28;19933;-86
2023/04/11 04:27:09;;;;;;;27.80;6.13;;;11.20;83.40;;;10.53;65.57;99960.91;4991315;28;20455;-88
2023/04/11 04:29:47;;;;;;;25.25;5.90;;;11.20;83.30;;;10.41;66.02;99963.50;4970345;28;20042;-89
2023/04/11 04:32:21;;;;;;;21.98;6.03;;;11.10;83.90;;;10.37;66.16;99961.50;4982694;28;20157;-86
2023/04/11 04:34:54;;;;;;;30.40;6.57;;;11.00;83.90;;;10.36;65.87;99967.88;5000346;28;20500;-86
2023/04/11 04:37:27;;;;;;;21.60;6.75;;;11.00;83.70;;;10.34;65.87;99976.09;4992907;28;20054;-86
2023/04/11 04:40:06;;;;;;;26.23;6.55;;;10.90;83.70;;;10.32;65.87;99978.97;4985423;28;20046;-84
2023/04/11 04:42:40;;;;;;;28.42;6.90;;;11.00;83.60;;;10.35;65.45;99982.25;4985855;28;20068;-84
2023/04/11 04:45:09;;;;;;;22.90;6.05;;;10.90;83.30;;;10.34;65.65;99980.59;4972970;28;20526;-86
2023/04/11 04:47:38;;;;;;;22.90;6.88;;;11.00;83.50;;;10.35;65.45;99974.25;4974297;28;20053;-83
2023/04/11 04:50:07;;;;;;;23.63;6.43;;;11.00;83.20;;;10.36;65.07;99981.22;4974176;28;20070;-84
2023/04/11 04:52:34;;;;;;;22.90;5.93;;;11.00;82.90;;;10.40;65.45;99990.41;4994027;28;20501;-84
2023/04/11 04:55:02;;;;;;;23.83;6.18;;;11.00;83.20;;;10.42;65.57;99975.00;4974210;28;20057;-85
2023/04/11 04:57:31;;;;;;;20.48;5.90;;;11.00;83.40;;;10.35;65.23;99982.25;4980304;28;20069;-83
2023/04/11 05:00:00;;;;;;;25.27;6.95;;;11.00;83.10;;;10.24;65.71;99984.59;4970514;28;20074;-84
2023/04/11 05:02:28;;;;;;;30.27;7.05;;;10.90;83.50;;;10.23;66.46;99992.78;4972944;28;20078;-85
2023/04/11 05:05:02;;;;;;;26.40;6.75;;;10.90;83.90;;;10.26;65.80;99992.38;4971029;28;20133;-83
2023/04/11 05:07:30;;;;;;;22.70;5.60;;;10.90;83.60;;;10.23;66.10;100001.59;4977496;28;20054;-85
2023/04/11 05:09:57;;;;;;;24.38;5.55;;;10.90;83.80;;;10.27;66.18;100002.00;4990112;28;20053;-84
2023/04/11 05:12:26;;;;;;;23.17;5.85;;;10.90;83.80;;;10.27;66.12;99997.50;4969020;28;20045;-82
2023/04/11 05:14:57;;;;;;;25.83;6.43;;;10.90;83.70;;;10.28;65.68;99999.09;4973783;28;20042;-85
2023/04/11 05:17:29;;;;;;;26.98;7.20;;;10.90;83.30;;;10.22;65.44;99997.31;4979197;28;20065;-83
2023/04/11 05:19:57;;;;;;;23.00;5.65;;;10.90;83.30;;;10.25;65.68;100007.56;4988232;28;20046;-87
2023/04/11 05:22:26;;;;;;;26.27;6.18;;;10.90;83.30;;;10.25;65.34;100018.22;4985169;28;20132;-90
2023/04/11 05:24:56;;;;;;;19.90;5.35;;;10.90;83.10;;;10.22;65.10;100013.28;4988809;28;20045;-90
2023/04/11 05:27:23;;;;;;;20.83;5.50;;;10.90;82.80;;;10.20;64.68;100014.53;4978223;28;20074;-89
2023/04/11 05:29:50;;;;;;;20.00;5.57;;;10.80;82.40;;;10.20;65.19;100015.38;4989837;28;20048;-89
2023/04/11 05:32:19;;;;;;;25.63;6.15;;;10.80;82.80;;;10.22;64.84;100020.47;4982161;28;20137;-87
2023/04/11 05:34:55;;;;;;;26.85;6.57;;;10.90;82.70;;;10.23;64.69;100032.75;4997569;28;20388;-88
2023/04/11 05:37:31;;;;;;;18.40;4.80;;;10.90;82.60;;;10.28;65.19;100033.75;4989722;28;20054;-89
2023/04/11 05:39:58;;;;;;;20.67;5.05;;;10.90;82.90;;;10.35;64.75;100030.22;4981050;28;20064;-83
2023/04/11 05:42:26;;;;;;;17.67;5.22;;;10.90;82.50;;;10.35;64.54;100028.38;4984555;28;20050;-82
2023/04/11 05:44:53;;;;;;;18.52;6.00;;;11.00;82.10;;;10.35;64.20;100036.38;4993812;28;20113;-87
2023/04/11 05:47:20;;;;;;;24.95;5.82;;;11.00;82.00;;;10.38;63.91;100035.91;4975306;28;20047;-85
2023/04/11 05:49:47;;;;;;;21.20;4.93;;;11.00;81.60;;;10.38;63.57;100032.44;4983224;28;20057;-84
2023/04/11 05:52:17;;;;;;;20.63;5.20;;;11.00;81.40;;;10.43;63.45;100043.25;4998982;28;20061;-82
2023/04/11 05:54:44;;;;;;;20.35;5.05;;;11.00;81.20;;;10.41;63.78;100034.69;4999208;28;20600;-83
2023/04/11 05:57:11;;;;;;;16.13;5.07;;;11.00;81.90;;;10.42;64.32;100044.28;4997326;28;20510;-83
2023/04/11 05:59:38;;;;;;;22.90;5.70;;;11.10;82.30;;;10.43;64.91;100051.25;4979451;28;20414;-83
2023/04/11 06:02:07;;;;;;;23.25;6.25;;;11.10;82.80;;;10.29;65.76;100058.56;4993829;28;20507;-79
2023/04/11 06:04:34;;;;;;;22.63;6.47;;;11.00;83.60;;;10.23;66.26;100054.06;4987839;28;20046;-80
2023/04/11 06:07:03;;;;;;;26.13;5.88;;;10.90;83.90;;;10.18;66.77;100068.06;4988315;28;20138;-80
2023/04/11 06:09:32;;;;;;;22.75;6.45;;;10.90;84.50;;;10.13;66.90;100072.41;4993595;28;20054;-83
2023/04/11 06:12:00;;;;;;;21.42;5.22;;;10.80;84.50;;;10.20;68.06;100071.34;4988213;28;20109;-81
2023/04/11 06:14:27;;;;;;;17.00;5.78;;;10.80;85.50;;;10.26;66.86;100075.81;4987363;28;20042;-78
2023/04/11 06:16:54;;;;;;;21.10;5.43;;;10.90;84.60;;;10.23;67.00;100081.53;4992418;28;20125;-78
2023/04/11 06:19:22;;;;;;;18.67;5.32;;;10.90;84.50;;;10.30;66.63;100076.19;4991284;28;20053;-81
2023/04/11 06:21:49;;;;;;;23.33;6.05;;;10.90;84.20;;;10.32;66.11;100085.59;4983476;28;20458;-80
2023/04/11 06:24:18;;;;;;;15.38;5.35;;;11.00;83.90;;;10.29;65.43;100090.53;4985389;28;20042;-79
2023/04/11 06:26:46;;;;;;;19.13;5.28;;;10.90;83.20;;;10.22;64.36;100098.56;4987293;28;20590;-80
2023/04/11 06:29:13;;;;;;;19.67;5.72;;;10.90;82.00;;;10.29;65.17;100090.53;4985353;28;20084;-85
2023/04/11 06:31:41;;;;;;;20.25;5.53;;;10.90;82.80;;;10.27;64.59;100098.75;4987142;28;20080;-79
2023/04/11 06:34:08;;;;;;;21.13;4.78;;;10.90;82.50;;;10.20;64.77;100100.66;4984036;28;20045;-80
2023/04/11 06:36:36;;;;;;;21.17;4.88;;;10.90;82.60;;;10.18;63.15;100105.38;4982178;28;20455;-78
2023/04/11 06:39:04;;;;;;;22.02;5.18;;;10.80;80.80;;;10.15;63.45;100104.97;4976599;28;20046;-80
2023/04/11 06:41:32;;;;;;;25.10;5.07;;;10.80;81.40;;;10.22;63.07;100106.56;4985452;28;20054;-79
2023/04/11 06:44:00;;;;;;;17.52;4.15;;;10.90;81.00;;;10.27;63.21;100119.28;4975400;28;20484;-80
2023/04/11 06:46:27;;;;;;;17.88;3.95;;;10.90;80.90;;;10.27;62.72;100121.94;4988169;28;20051;-78
2023/04/11 06:48:55;;;;;;;18.17;4.10;;;10.90;80.40;;;10.28;62.30;100123.56;4977540;28;20046;-76
2023/04/11 06:51:22;;;;;;;20.98;4.13;;;11.00;79.70;;;10.32;62.86;100125.56;4985381;28;20065;-78
2023/04/11 06:53:49;;;;;;;15.57;3.50;;;11.00;80.60;;;10.37;62.52;100116.13;4972732;28;20042;-78
2023/04/11 06:56:17;;;;;;;15.82;4.00;;;11.00;80.20;;;10.42;61.70;100130.41;4978254;28;20046;-79
2023/04/11 06:58:44;;;;;;;16.88;3.97;;;11.10;79.60;;;10.42;62.10;100137.59;4981089;28;20166;-78
2023/04/11 07:01:13;;;;;;;20.23;4.25;;;11.10;79.80;;;10.45;61.54;100142.50;4980340;28;20046;-80
2023/04/11 07:03:40;;;;;;;13.77;3.22;;;11.10;79.20;;;10.57;61.20;100144.22;4977181;28;20035;-77
2023/04/11 07:06:08;;;;;;;16.20;3.55;;;11.20;78.50;;;10.63;61.16;100141.72;4983027;28;20394;-77
2023/04/11 07:08:35;;;;;;;12.52;2.97;;;11.30;78.80;;;10.64;61.60;100148.69;4983586;28;20129;-77
2023/04/11 07:11:03;;;;;;;19.38;4.68;;;11.30;79.20;;;10.54;59.99;100147.34;4976761;28;20056;-79
2023/04/11 07:13:30;;;;;;;15.57;3.50;;;11.40;77.70;;;10.52;60.32;100161.91;4976837;28;20050;-77
2023/04/11 07:15:57;;;;;;;12.73;3.53;;;11.20;77.80;;;10.50;61.20;100159.47;4985791;28;20101;-80
2023/04/11 07:18:26;;;;;;;18.58;3.70;;;11.20;79.00;;;10.72;62.28;100167.88;4980583;28;20166;-77
2023/04/11 07:20:54;;;;;;;17.50;3.42;;;11.40;79.60;;;10.76;61.29;100155.75;4976130;28;20511;-76
2023/04/11 07:23:21;;;;;;;17.90;3.47;;;11.50;78.80;;;10.75;60.13;100159.47;4986561;28;20496;-79
2023/04/11 07:25:49;;;;;;;14.48;3.65;;;11.60;77.50;;;10.77;59.96;100168.03;4984703;28;20101;-77
2023/04/11 07:28:17;;;;;;;16.95;3.45;;;11.50;77.40;;;10.79;60.00;100166.00;4978171;28;20525;-71
2023/04/11 07:30:45;;;;;;;15.77;3.40;;;11.50;77.50;;;10.83;60.22;100161.84;4992397;28;20502;-82
2023/04/11 07:33:12;;;;;;;22.58;3.83;;;11.50;77.50;;;10.84;59.72;100168.00;4980391;28;20050;-85
2023/04/11 07:35:41;;;;;;;15.15;3.88;;;11.50;77.10;;;10.90;60.23;100168.97;4972387;28;20064;-84
2023/04/11 07:38:09;;;;;;;12.77;3.22;;;11.60;77.40;;;10.87;59.43;100172.06;4979889;28;20377;-84
2023/04/11 07:40:36;;;;;;;18.17;3.67;;;11.50;76.80;;;10.83;59.79;100185.00;4976157;28;20050;-83
2023/04/11 07:43:04;;;;;;;16.90;3.92;;;11.50;77.10;;;10.76;59.21;100177.09;4962958;28;20161;-86
2023/04/11 07:45:35;;;;;;;21.52;3.90;;;11.50;76.40;;;10.76;58.61;100165.59;4990759;28;20052;-86
2023/04/11 07:48:05;;;;;;;20.88;3.80;;;11.50;75.80;;;10.92;60.42;100173.03;4990378;28;20042;-86
2023/04/11 07:50:37;;;;;;;25.25;3.58;;;11.60;77.60;;;11.15;60.50;100177.72;4991060;28;20051;-86
2023/04/11 07:53:53;;;;;;;14.45;3.67;;;11.80;78.00;;;11.27;58.63;100175.97;4974489;28;20574;-87
2023/04/11 07:57:18;;;;;;;15.68;3.92;;;11.90;76.80;;;11.25;59.68;100175.34;4978574;28;20680;-82
2023/04/11 08:03:04;;;;;;;17.83;4.20;;;12.10;76.10;;;11.33;57.95;100175.06;4961867;28;20052;-83
2023/04/11 08:05:33;;;;;;;18.23;3.92;;;12.00;74.80;;;11.34;57.77;100183.88;4969481;28;20046;-86
2023/04/11 08:08:00;;;;;;;17.60;4.22;;;12.10;74.80;;;11.34;58.22;100173.19;4967939;28;20049;-86
2023/04/11 08:10:29;;;;;;;16.42;4.28;;;12.10;75.20;;;11.35;57.93;100177.50;4968607;28;20050;-86
2023/04/11 08:12:57;;;;;;;14.68;4.10;;;12.10;74.90;;;11.32;58.34;100177.94;4969156;28;20423;-87
2023/04/11 08:15:24;;;;;;;14.07;4.07;;;12.00;75.40;;;11.35;58.20;100188.19;4969115;28;20046;-86
2023/04/11 08:17:54;;;;;;;16.00;4.20;;;12.10;75.20;;;11.35;57.42;100182.84;4960438;28;20070;-86
2023/04/11 08:20:23;;;;;;;25.85;4.13;;;12.10;74.30;;;11.44;58.18;100184.16;4967726;28;20051;-88
2023/04/11 08:22:50;;;;;;;14.02;3.38;;;12.10;75.20;;;11.56;57.85;100189.56;4965344;28;20034;-87
2023/04/11 08:25:21;;;;;;;15.65;3.80;;;12.30;74.90;;;11.67;57.68;100188.81;4966324;28;20105;-86
2023/04/11 08:27:50;;;;;;;17.00;3.88;;;12.40;74.90;;;11.88;56.28;100197.44;4968985;28;20093;-85
2023/04/11 08:30:17;;;;;;;16.63;3.72;;;12.50;73.30;;;11.97;57.68;100188.88;4959120;28;20070;-85
2023/04/11 08:32:45;;;;;;;13.95;3.58;;;12.60;74.50;;;12.11;57.84;100189.50;4962348;28;20038;-84
2023/04/11 08:35:12;;;;;;;13.30;4.00;;;12.80;74.30;;;12.13;55.43;100192.75;4968601;28;20046;-85
2023/04/11 08:37:45;;;;;;;13.48;3.47;;;12.80;71.90;;;12.13;55.19;100192.75;4960236;28;20117;-87
2023/04/11 08:40:17;;;;;;;18.38;4.32;;;12.80;71.90;;;12.08;55.40;100196.09;4962136;28;20043;-85
2023/04/11 08:43:00;;;;;;;16.70;3.53;;;12.80;71.80;;;12.10;55.08;100202.03;4968556;28;20047;-89
2023/04/11 08:45:36;;;;;;;11.43;3.30;;;12.80;71.50;;;12.08;52.63;100195.28;4965379;28;20037;-77
2023/04/11 08:48:12;;;;;;;17.45;3.35;;;12.80;68.70;;;12.03;53.70;100193.28;4962505;28;20044;-77
2023/04/11 08:50:47;;;;;;;13.52;3.22;;;12.80;69.90;;;12.10;53.83;100204.72;4967496;28;20043;-80
2023/04/11 08:53:23;;;;;;;14.32;3.20;;;12.80;69.80;;;12.23;54.28;100206.38;4966694;28;20515;-78
2023/04/11 08:55:58;;;;;;;14.48;3.25;;;12.90;70.40;;;12.38;54.63;100216.63;4966744;28;20430;-82
2023/04/11 08:58:33;;;;;;;16.67;3.28;;;13.10;70.70;;;12.44;52.06;100201.53;4975434;28;20049;-80
2023/04/11 09:01:36;;;;;;;12.88;3.17;;;13.10;68.10;;;12.32;50.01;100222.91;4970324;28;20073;-79
2023/04/11 09:04:10;;;;;;;12.60;3.58;;;13.10;65.70;;;12.19;49.69;100217.75;4971129;28;20062;-79
2023/04/11 09:06:57;;;;;;;15.55;3.20;;;12.90;65.10;;;12.16;50.76;100210.19;4980025;28;20056;-79
2023/04/11 09:09:35;;;;;;;13.45;3.22;;;12.90;66.50;;;12.16;50.43;100228.91;4969892;28;20814;-82
2023/04/11 09:12:10;;;;;;;11.18;3.22;;;12.90;65.80;;;12.10;50.64;100225.25;4972120;28;20122;-80
2023/04/11 09:14:39;;;;;;;16.45;3.65;;;12.80;65.70;;;12.08;51.29;100222.81;4970474;28;20071;-80
2023/04/11 09:17:12;;;;;;;14.65;3.33;;;12.80;66.60;;;12.12;50.26;100228.53;4978713;28;20041;-80
2023/04/11 09:19:42;;;;;;;11.10;2.80;;;12.90;65.40;;;12.21;51.30;100223.69;4970166;28;20054;-79
2023/04/11 09:22:10;;;;;;;14.75;2.60;;;12.90;66.80;;;12.33;50.66;100220.00;4970434;28;20047;-82
2023/04/11 09:24:43;;;;;;;9.90;2.20;;;13.00;65.70;;;12.45;48.63;100222.72;4970611;28;20047;-79
2023/04/11 09:27:23;;;;;;;8.88;2.25;;;13.10;63.50;;;12.46;48.49;100228.88;4977514;28;20057;-79
2023/04/11 09:30:01;;;;;;;10.40;2.28;;;13.20;63.20;;;12.36;48.54;100216.88;4968514;28;20050;-80
2023/04/11 09:32:32;;;;;;;11.65;2.35;;;13.10;63.30;;;12.40;50.00;100233.28;4954261;28;20054;-79
2023/04/11 09:35:14;;;;;;;15.27;2.92;;;13.10;65.00;;;12.56;50.62;100216.56;4969164;28;20043;-78
2023/04/11 09:37:46;;;;;;;15.40;3.08;;;13.30;65.80;;;12.66;50.28;100218.66;4967107;28;20067;-79
2023/04/11 09:40:15;;;;;;;11.50;3.33;;;13.40;65.30;;;12.72;49.53;100225.75;4969895;28;20054;-78
2023/04/11 09:42:43;;;;;;;11.63;2.15;;;13.40;64.40;;;12.70;48.60;100209.13;4964360;28;20079;-79
2023/04/11 09:45:20;;;;;;;12.52;2.38;;;13.40;63.30;;;12.75;48.60;100230.66;4969655;28;20043;-79
2023/04/11 09:47:49;;;;;;;8.35;2.28;;;13.50;63.20;;;12.74;48.48;100226.38;4945213;28;20038;-79
2023/04/11 09:50:17;;;;;;;12.70;2.67;;;13.50;63.00;;;12.71;48.86;100221.47;4969443;28;20042;-82
2023/04/11 09:52:45;;;;;;;15.30;3.25;;;13.50;63.20;;;12.68;48.64;100221.09;4971877;28;20122;-80
2023/04/11 09:55:17;;;;;;;9.90;2.72;;;13.40;63.00;;;12.55;48.23;100230.19;4964664;28;20074;-79
2023/04/11 09:57:46;;;;;;;13.13;2.65;;;13.40;62.40;;;12.63;49.43;100233.31;4971225;28;20047;-78
2023/04/11 10:00:18;;;;;;;10.13;2.90;;;13.40;64.20;;;12.72;49.54;100217.72;4973357;28;20082;-79
2023/04/11 10:02:49;;;;;;;8.80;2.45;;;13.50;64.20;;;12.77;49.14;100220.53;4971683;28;20423;-81
2023/04/11 10:05:25;;;;;;;13.57;2.70;;;13.50;63.80;;;12.85;47.82;100214.03;4964325;28;20109;-80
2023/04/11 10:08:02;;;;;;;11.70;2.88;;;13.60;61.90;;;12.85;45.77;100219.38;4972451;28;20042;-79
2023/04/11 10:10:33;;;;;;;8.60;2.30;;;13.60;59.20;;;12.91;45.39;100226.47;4973542;28;20627;-79
2023/04/11 10:13:00;;;;;;;8.20;2.28;;;13.60;58.40;;;12.97;46.34;100224.72;4966383;28;20503;-79
2023/04/11 10:15:30;;;;;;;8.23;2.55;;;13.60;59.70;;;12.99;45.58;100222.66;4968634;28;20039;-81
2023/04/11 10:18:12;;;;;;;11.23;3.10;;;13.70;58.80;;;12.96;44.56;100231.13;4972330;28;20123;-82
2023/04/11 10:20:47;;;;;;;9.73;2.53;;;13.70;57.50;;;13.02;45.28;100241.72;4967997;28;20325;-81
2023/04/11 10:23:20;;;;;;;11.57;2.97;;;13.80;58.20;;;13.11;46.39;100239.50;4968793;28;20446;-82
2023/04/11 10:25:57;;;;;;;10.52;2.65;;;13.80;60.00;;;13.17;43.15;100243.13;4963079;28;20031;-83